createdAt,value
2023-04-14T00:00:43.570Z,7.30
2023-04-14T00:01:43.645Z,7.20
2023-04-14T00:02:43.726Z,7.50
2023-04-14T00:03:43.731Z,11.00
2023-04-14T00:04:43.616Z,6.90
2023-04-14T00:05:43.512Z,7.90
2023-04-14T00:06:43.526Z,8.60
2023-04-14T00:07:43.499Z,8.10
2023-04-14T00:08:43.481Z,7.90
2023-04-14T00:09:43.471Z,10.10
2023-04-14T00:10:43.474Z,7.80
2023-04-14T00:11:43.469Z,9.20
2023-04-14T00:12:43.456Z,8.10
2023-04-14T00:13:43.446Z,10.50
2023-04-14T00:14:43.439Z,7.30
2023-04-14T00:15:43.432Z,8.80
2023-04-14T00:16:43.460Z,8.60
2023-04-14T00:17:43.421Z,8.70
2023-04-14T00:18:43.388Z,7.70
2023-04-14T00:19:43.384Z,8.40
2023-04-14T00:20:43.353Z,8.40
2023-04-14T00:21:43.367Z,10.10
2023-04-14T00:22:43.359Z,8.80
2023-04-14T00:23:43.391Z,8.40
2023-04-14T00:24:43.320Z,6.70
2023-04-14T00:25:43.302Z,7.00
2023-04-14T00:26:43.291Z,6.90
2023-04-14T00:27:43.305Z,7.80
2023-04-14T00:28:43.258Z,8.60
2023-04-14T00:29:43.252Z,7.00
2023-04-14T00:30:43.318Z,8.60
2023-04-14T00:31:43.269Z,8.10
2023-04-14T00:32:43.299Z,7.10
2023-04-14T00:33:43.216Z,7.50
2023-04-14T00:34:43.218Z,7.50
2023-04-14T00:35:43.187Z,7.90
2023-04-14T00:36:43.186Z,10.80
2023-04-14T00:37:43.178Z,8.50
2023-04-14T00:38:43.147Z,7.80
2023-04-14T00:39:43.138Z,8.30
2023-04-14T00:40:43.146Z,9.90
2023-04-14T00:41:43.123Z,8.80
2023-04-14T00:42:50.638Z,8.20
2023-04-14T00:43:43.099Z,10.30
2023-04-14T00:44:43.083Z,9.10
2023-04-14T00:45:43.091Z,7.70
2023-04-14T00:46:43.122Z,10.40
2023-04-14T00:47:43.099Z,8.70
2023-04-14T00:48:43.045Z,8.50
2023-04-14T00:49:43.040Z,8.90
2023-04-14T00:50:43.042Z,8.20
2023-04-14T00:51:43.010Z,10.20
2023-04-14T00:52:43.011Z,8.60
2023-04-14T00:53:42.998Z,9.00
2023-04-14T00:54:42.974Z,9.10
2023-04-14T00:55:42.984Z,10.00
2023-04-14T00:56:42.955Z,9.40
2023-04-14T00:57:42.947Z,8.10
2023-04-14T00:58:42.945Z,8.00
2023-04-14T00:59:42.930Z,7.80
2023-04-14T01:00:42.907Z,14.40
2023-04-14T01:01:43.035Z,10.10
2023-04-14T01:02:43.052Z,8.30
2023-04-14T01:03:43.041Z,8.90
2023-04-14T01:04:53.639Z,8.10
2023-04-14T01:05:42.857Z,7.90
2023-04-14T01:06:42.885Z,10.10
2023-04-14T01:07:42.832Z,9.80
2023-04-14T01:08:42.832Z,9.80
2023-04-14T01:09:42.820Z,10.60
2023-04-14T01:10:42.797Z,8.50
2023-04-14T01:11:42.788Z,9.30
2023-04-14T01:12:42.776Z,8.40
2023-04-14T01:13:42.788Z,9.00
2023-04-14T01:14:42.765Z,10.20
2023-04-14T01:15:42.788Z,9.10
2023-04-14T01:16:43.415Z,8.70
2023-04-14T01:17:42.766Z,11.00
2023-04-14T01:18:42.711Z,9.80
2023-04-14T01:19:42.714Z,9.00
2023-04-14T01:20:42.686Z,9.90
2023-04-14T01:21:42.679Z,10.00
2023-04-14T01:22:42.684Z,11.20
2023-04-14T01:23:42.662Z,8.90
2023-04-14T01:24:42.664Z,8.80
2023-04-14T01:25:42.642Z,8.40
2023-04-14T01:26:42.621Z,9.00
2023-04-14T01:27:42.633Z,11.00
2023-04-14T01:28:42.601Z,11.90
2023-04-14T01:29:42.616Z,9.00
2023-04-14T01:30:42.577Z,9.20
2023-04-14T01:31:42.645Z,9.70
2023-04-14T01:32:42.603Z,10.40
2023-04-14T01:33:42.548Z,9.10
2023-04-14T01:34:42.560Z,11.20
2023-04-14T01:35:42.529Z,9.70
2023-04-14T01:36:42.524Z,9.10
2023-04-14T01:37:42.505Z,9.40
2023-04-14T01:38:42.526Z,9.30
2023-04-14T01:39:42.504Z,10.30
2023-04-14T01:40:42.483Z,11.40
2023-04-14T01:41:42.460Z,8.90
2023-04-14T01:42:42.445Z,10.20
2023-04-14T01:43:42.440Z,10.50
2023-04-14T01:44:42.435Z,16.70
2023-04-14T01:45:42.446Z,9.70
2023-04-14T01:46:42.427Z,10.40
2023-04-14T01:47:42.425Z,9.30
2023-04-14T01:48:42.381Z,9.60
2023-04-14T01:49:42.411Z,8.40
2023-04-14T01:50:42.373Z,10.90
2023-04-14T01:51:42.357Z,8.90
2023-04-14T01:52:42.343Z,9.40
2023-04-14T01:53:42.333Z,10.60
2023-04-14T01:54:42.365Z,9.60
2023-04-14T01:55:42.311Z,11.30
2023-04-14T01:56:42.297Z,10.00
2023-04-14T01:57:42.310Z,9.20
2023-04-14T01:58:42.290Z,10.20
2023-04-14T01:59:42.290Z,9.30
2023-04-14T02:00:42.320Z,12.00
2023-04-14T02:01:42.275Z,11.60
2023-04-14T02:02:42.299Z,9.30
2023-04-14T02:03:42.297Z,9.50
2023-04-14T02:04:42.225Z,9.70
2023-04-14T02:05:42.218Z,11.70
2023-04-14T02:06:42.187Z,10.40
2023-04-14T02:07:42.192Z,9.10
2023-04-14T02:08:42.171Z,9.90
2023-04-14T02:09:42.155Z,10.00
2023-04-14T02:10:42.174Z,9.80
2023-04-14T02:11:42.136Z,10.70
2023-04-14T02:12:42.120Z,10.60
2023-04-14T02:13:42.121Z,10.20
2023-04-14T02:14:42.123Z,8.60
2023-04-14T02:15:42.090Z,10.00
2023-04-14T02:16:42.117Z,12.10
2023-04-14T02:17:42.110Z,10.30
2023-04-14T02:18:42.091Z,9.90
2023-04-14T02:19:42.056Z,9.10
2023-04-14T02:20:42.032Z,10.10
2023-04-14T02:21:42.037Z,8.60
2023-04-14T02:22:42.011Z,9.40
2023-04-14T02:23:42.014Z,13.70
2023-04-14T02:24:42.001Z,9.00
2023-04-14T02:25:41.995Z,9.20
2023-04-14T02:26:41.990Z,8.80
2023-04-14T02:27:41.960Z,10.40
2023-04-14T02:28:41.961Z,10.50
2023-04-14T02:29:41.950Z,9.10
2023-04-14T02:30:41.950Z,10.90
2023-04-14T02:31:41.924Z,9.80
2023-04-14T02:32:41.978Z,11.30
2023-04-14T02:33:41.897Z,12.30
2023-04-14T02:34:41.909Z,8.70
2023-04-14T02:35:41.899Z,8.80
2023-04-14T02:36:41.868Z,10.80
2023-04-14T02:37:41.877Z,10.10
2023-04-14T02:38:41.863Z,9.10
2023-04-14T02:39:41.874Z,8.90
2023-04-14T02:40:41.817Z,9.00
2023-04-14T02:41:41.803Z,10.60
2023-04-14T02:42:41.890Z,10.20
2023-04-14T02:43:49.287Z,10.30
2023-04-14T02:44:41.830Z,8.80
2023-04-14T02:45:41.806Z,8.50
2023-04-14T02:46:41.863Z,12.60
2023-04-14T02:47:41.758Z,9.30
2023-04-14T02:48:41.735Z,10.60
2023-04-14T02:49:41.729Z,10.50
2023-04-14T02:50:41.706Z,10.70
2023-04-14T02:51:41.710Z,12.70
2023-04-14T02:52:41.709Z,9.00
2023-04-14T02:53:41.692Z,8.90
2023-04-14T02:54:41.658Z,12.20
2023-04-14T02:55:41.665Z,10.90
2023-04-14T02:56:41.641Z,11.20
2023-04-14T02:57:41.633Z,8.60
2023-04-14T02:58:41.645Z,8.30
2023-04-14T02:59:41.643Z,11.20
2023-04-14T03:00:41.617Z,8.50
2023-04-14T03:01:41.682Z,9.30
2023-04-14T03:02:41.636Z,9.80
2023-04-14T03:03:41.567Z,9.00
2023-04-14T03:04:41.644Z,11.10
2023-04-14T03:05:41.574Z,9.70
2023-04-14T03:06:41.550Z,9.00
2023-04-14T03:07:41.532Z,8.20
2023-04-14T03:08:41.510Z,9.20
2023-04-14T03:09:41.501Z,9.70
2023-04-14T03:10:41.512Z,11.20
2023-04-14T03:11:41.489Z,10.10
2023-04-14T03:12:41.468Z,8.90
2023-04-14T03:13:41.467Z,10.70
2023-04-14T03:14:41.468Z,10.60
2023-04-14T03:15:41.506Z,8.60
2023-04-14T03:16:41.455Z,9.50
2023-04-14T03:17:41.513Z,9.20
2023-04-14T03:18:41.423Z,9.00
2023-04-14T03:19:41.425Z,9.30
2023-04-14T03:20:41.386Z,8.50
2023-04-14T03:21:41.376Z,12.20
2023-04-14T03:22:41.357Z,9.80
2023-04-14T03:23:41.345Z,11.40
2023-04-14T03:24:41.345Z,8.50
2023-04-14T03:25:41.323Z,8.80
2023-04-14T03:26:41.317Z,9.90
2023-04-14T03:27:41.299Z,9.10
2023-04-14T03:28:41.301Z,10.10
2023-04-14T03:29:41.296Z,11.10
2023-04-14T03:30:41.289Z,7.90
2023-04-14T03:31:41.290Z,9.50
2023-04-14T03:32:41.307Z,8.80
2023-04-14T03:33:41.245Z,10.00
2023-04-14T03:34:41.243Z,9.40
2023-04-14T03:35:41.215Z,9.00
2023-04-14T03:36:41.228Z,9.70
2023-04-14T03:37:41.195Z,9.50
2023-04-14T03:38:41.196Z,9.10
2023-04-14T03:39:41.188Z,9.50
2023-04-14T03:40:41.174Z,8.60
2023-04-14T03:41:41.149Z,9.60
2023-04-14T03:42:41.141Z,10.70
2023-04-14T03:43:41.135Z,8.40
2023-04-14T03:44:41.117Z,10.60
2023-04-14T03:45:41.114Z,8.40
2023-04-14T03:46:41.162Z,9.20
2023-04-14T03:47:41.122Z,9.40
2023-04-14T03:48:41.083Z,8.70
2023-04-14T03:49:41.057Z,8.80
2023-04-14T03:50:41.066Z,9.70
2023-04-14T03:51:41.125Z,9.30
2023-04-14T03:52:41.055Z,8.90
2023-04-14T03:53:41.028Z,9.50
2023-04-14T03:54:41.011Z,9.00
2023-04-14T03:55:40.996Z,8.90
2023-04-14T03:56:40.989Z,8.60
2023-04-14T03:57:40.984Z,9.90
2023-04-14T03:58:40.968Z,9.70
2023-04-14T03:59:40.952Z,8.30
2023-04-14T04:00:40.943Z,9.70
2023-04-14T04:01:40.942Z,12.80
2023-04-14T04:02:41.018Z,8.80
2023-04-14T04:03:41.083Z,10.50
2023-04-14T04:04:41.023Z,8.90
2023-04-14T04:05:40.885Z,8.40
2023-04-14T04:06:40.897Z,10.60
2023-04-14T04:07:40.884Z,9.00
2023-04-14T04:08:40.859Z,9.00
2023-04-14T04:09:40.842Z,9.20
2023-04-14T04:10:40.849Z,9.10
2023-04-14T04:11:40.846Z,10.60
2023-04-14T04:12:40.831Z,10.70
2023-04-14T04:13:40.828Z,8.40
2023-04-14T04:14:40.792Z,8.80
2023-04-14T04:15:40.777Z,7.90
2023-04-14T04:16:40.826Z,10.10
2023-04-14T04:17:40.833Z,9.80
2023-04-14T04:18:40.768Z,9.60
2023-04-14T04:19:40.746Z,8.50
2023-04-14T04:20:40.765Z,8.00
2023-04-14T04:21:40.720Z,9.10
2023-04-14T04:22:40.710Z,8.60
2023-04-14T04:23:40.692Z,8.20
2023-04-14T04:24:40.697Z,8.40
2023-04-14T04:25:40.680Z,10.80
2023-04-14T04:26:40.665Z,10.00
2023-04-14T04:27:40.648Z,8.90
2023-04-14T04:28:40.671Z,8.90
2023-04-14T04:29:40.638Z,9.60
2023-04-14T04:30:40.693Z,9.00
2023-04-14T04:31:40.655Z,11.70
2023-04-14T04:32:40.621Z,8.80
2023-04-14T04:33:40.580Z,11.20
2023-04-14T04:34:40.610Z,9.10
2023-04-14T04:35:40.579Z,7.90
2023-04-14T04:36:40.553Z,8.00
2023-04-14T04:37:40.537Z,10.30
2023-04-14T04:38:40.529Z,8.20
2023-04-14T04:39:40.513Z,10.20
2023-04-14T04:40:40.506Z,10.30
2023-04-14T04:41:40.505Z,10.00
2023-04-14T04:42:40.485Z,9.90
2023-04-14T04:43:40.473Z,10.20
2023-04-14T04:44:48.031Z,10.30
2023-04-14T04:45:40.514Z,10.30
2023-04-14T04:46:40.530Z,9.30
2023-04-14T04:47:40.460Z,11.90
2023-04-14T04:48:40.434Z,8.00
2023-04-14T04:49:40.416Z,9.70
2023-04-14T04:50:40.422Z,8.40
2023-04-14T04:51:40.388Z,9.10
2023-04-14T04:52:40.373Z,12.10
2023-04-14T04:53:40.368Z,7.80
2023-04-14T04:54:40.373Z,10.70
2023-04-14T04:55:40.349Z,10.20
2023-04-14T04:56:40.335Z,10.80
2023-04-14T04:57:40.317Z,10.50
2023-04-14T04:58:40.320Z,8.40
2023-04-14T04:59:40.305Z,10.10
2023-04-14T05:00:40.290Z,10.80
2023-04-14T05:01:40.327Z,9.70
2023-04-14T05:02:40.342Z,12.40
2023-04-14T05:03:40.254Z,9.90
2023-04-14T05:04:40.286Z,9.70
2023-04-14T05:05:40.234Z,10.30
2023-04-14T05:06:40.249Z,11.70
2023-04-14T05:07:40.231Z,8.70
2023-04-14T05:08:40.222Z,10.30
2023-04-14T05:09:40.206Z,8.00
2023-04-14T05:10:40.204Z,10.40
2023-04-14T05:11:40.171Z,10.80
2023-04-14T05:12:40.165Z,12.20
2023-04-14T05:13:40.149Z,9.90
2023-04-14T05:14:40.149Z,9.20
2023-04-14T05:15:40.169Z,11.00
2023-04-14T05:16:40.118Z,10.20
2023-04-14T05:17:40.205Z,10.50
2023-04-14T05:18:40.106Z,8.80
2023-04-14T05:19:40.094Z,10.60
2023-04-14T05:20:40.517Z,9.50
2023-04-14T05:21:40.073Z,11.00
2023-04-14T05:22:40.087Z,11.30
2023-04-14T05:23:40.044Z,9.00
2023-04-14T05:24:40.060Z,8.50
2023-04-14T05:25:40.036Z,8.70
2023-04-14T05:27:40.000Z,10.70
2023-04-14T05:28:39.984Z,10.30
2023-04-14T05:29:39.973Z,11.40
2023-04-14T05:30:39.982Z,11.70
2023-04-14T05:31:40.059Z,8.80
2023-04-14T05:32:39.972Z,9.60
2023-04-14T05:33:39.936Z,9.60
2023-04-14T05:34:39.944Z,9.60
2023-04-14T05:35:39.908Z,12.50
2023-04-14T05:36:39.910Z,10.90
2023-04-14T05:37:39.886Z,8.70
2023-04-14T05:38:39.934Z,8.90
2023-04-14T05:39:39.865Z,8.00
2023-04-14T05:40:39.856Z,7.90
2023-04-14T05:41:39.858Z,12.20
2023-04-14T05:42:39.846Z,10.40
2023-04-14T05:43:39.844Z,7.70
2023-04-14T05:44:39.815Z,8.60
2023-04-14T05:45:39.815Z,8.40
2023-04-14T05:46:39.865Z,10.60
2023-04-14T05:47:39.819Z,8.20
2023-04-14T05:48:39.798Z,9.80
2023-04-14T05:49:39.769Z,8.70
2023-04-14T05:50:39.746Z,8.10
2023-04-14T05:51:39.744Z,9.50
2023-04-14T05:52:39.742Z,7.30
2023-04-14T05:53:39.711Z,9.10
2023-04-14T05:54:41.327Z,7.70
2023-04-14T05:55:39.693Z,9.20
2023-04-14T05:56:39.682Z,8.90
2023-04-14T05:57:39.665Z,8.80
2023-04-14T05:58:39.687Z,8.30
2023-04-14T05:59:39.643Z,8.80
2023-04-14T06:00:39.635Z,7.60
2023-04-14T06:01:39.694Z,8.10
2023-04-14T06:02:39.847Z,8.30
2023-04-14T06:03:40.757Z,9.80
2023-04-14T06:04:39.670Z,5.90
2023-04-14T06:05:39.575Z,6.90
2023-04-14T06:06:39.570Z,7.20
2023-04-14T06:07:39.577Z,7.90
2023-04-14T06:08:39.552Z,8.20
2023-04-14T06:09:39.537Z,6.50
2023-04-14T06:10:39.559Z,6.90
2023-04-14T06:11:39.517Z,6.30
2023-04-14T06:12:39.530Z,8.80
2023-04-14T06:13:39.494Z,7.60
2023-04-14T06:14:39.491Z,6.60
2023-04-14T06:15:39.478Z,8.00
2023-04-14T06:16:39.530Z,6.30
2023-04-14T06:17:39.470Z,7.30
2023-04-14T06:18:39.461Z,6.00
2023-04-14T06:19:39.443Z,7.80
2023-04-14T06:20:39.435Z,6.00
2023-04-14T06:21:39.420Z,9.20
2023-04-14T06:22:39.407Z,7.80
2023-04-14T06:23:39.380Z,7.00
2023-04-14T06:24:39.394Z,6.20
2023-04-14T06:25:39.384Z,7.80
2023-04-14T06:26:39.380Z,7.40
2023-04-14T06:27:39.338Z,6.00
2023-04-14T06:28:39.722Z,4.90
2023-04-14T06:29:39.318Z,6.00
2023-04-14T06:30:39.323Z,5.90
2023-04-14T06:31:39.328Z,7.10
2023-04-14T06:32:39.339Z,5.40
2023-04-14T06:33:39.271Z,6.70
2023-04-14T06:34:39.261Z,4.80
2023-04-14T06:35:39.248Z,6.90
2023-04-14T06:36:39.265Z,5.90
2023-04-14T06:37:39.226Z,7.70
2023-04-14T06:38:39.217Z,6.00
2023-04-14T06:39:39.210Z,6.60
2023-04-14T06:40:39.211Z,6.10
2023-04-14T06:41:39.183Z,5.70
2023-04-14T06:42:39.231Z,5.60
2023-04-14T06:43:39.162Z,6.90
2023-04-14T06:44:39.154Z,6.80
2023-04-14T06:45:46.716Z,7.80
2023-04-14T06:46:39.145Z,7.40
2023-04-14T06:47:39.156Z,7.40
2023-04-14T06:48:39.105Z,6.20
2023-04-14T06:49:39.111Z,5.80
2023-04-14T06:50:39.099Z,6.80
2023-04-14T06:51:39.071Z,5.70
2023-04-14T06:52:39.069Z,6.00
2023-04-14T06:53:39.048Z,4.90
2023-04-14T06:54:39.046Z,6.80
2023-04-14T06:55:39.040Z,4.20
2023-04-14T06:56:39.023Z,7.10
2023-04-14T06:57:39.007Z,7.40
2023-04-14T06:58:39.148Z,7.30
2023-04-14T06:59:38.988Z,5.80
2023-04-14T07:00:38.989Z,6.00
2023-04-14T07:01:39.032Z,5.60
2023-04-14T07:02:39.194Z,6.90
2023-04-14T07:03:38.966Z,6.80
2023-04-14T07:04:38.994Z,6.40
2023-04-14T07:05:38.926Z,4.40
2023-04-14T07:06:38.919Z,5.30
2023-04-14T07:07:38.912Z,5.80
2023-04-14T07:08:38.886Z,6.50
2023-04-14T07:09:38.897Z,5.90
2023-04-14T07:10:38.862Z,6.70
2023-04-14T07:11:38.860Z,5.70
2023-04-14T07:12:38.858Z,5.50
2023-04-14T07:13:38.833Z,5.30
2023-04-14T07:14:38.836Z,5.70
2023-04-14T07:15:38.862Z,6.70
2023-04-14T07:16:38.800Z,5.90
2023-04-14T07:17:38.836Z,6.10
2023-04-14T07:18:38.772Z,6.90
2023-04-14T07:19:38.769Z,6.00
2023-04-14T07:20:38.748Z,6.50
2023-04-14T07:21:38.735Z,6.00
2023-04-14T07:22:38.725Z,6.30
2023-04-14T07:23:38.724Z,6.80
2023-04-14T07:24:38.711Z,5.00
2023-04-14T07:25:38.713Z,6.50
2023-04-14T07:26:38.682Z,5.50
2023-04-14T07:27:38.687Z,6.70
2023-04-14T07:28:38.681Z,7.10
2023-04-14T07:29:38.654Z,5.60
2023-04-14T07:30:38.670Z,6.60
2023-04-14T07:31:38.638Z,7.10
2023-04-14T07:32:38.664Z,5.30
2023-04-14T07:33:38.637Z,5.40
2023-04-14T07:34:38.598Z,5.70
2023-04-14T07:35:41.894Z,5.90
2023-04-14T07:36:38.579Z,6.80
2023-04-14T07:37:38.584Z,7.00
2023-04-14T07:38:38.580Z,5.90
2023-04-14T07:39:38.577Z,7.00
2023-04-14T07:40:40.120Z,7.40
2023-04-14T07:41:38.555Z,5.90
2023-04-14T07:42:38.534Z,6.10
2023-04-14T07:43:38.561Z,6.40
2023-04-14T07:44:38.480Z,6.70
2023-04-14T07:45:38.477Z,6.10
2023-04-14T07:46:38.618Z,6.80
2023-04-14T07:47:38.538Z,4.80
2023-04-14T07:48:38.469Z,5.70
2023-04-14T07:49:38.430Z,6.80
2023-04-14T07:50:38.416Z,6.50
2023-04-14T07:51:38.412Z,6.30
2023-04-14T07:52:38.390Z,6.50
2023-04-14T07:53:38.408Z,5.40
2023-04-14T07:54:38.370Z,5.80
2023-04-14T07:55:38.364Z,5.30
2023-04-14T07:56:38.353Z,6.20
2023-04-14T07:57:38.339Z,5.30
2023-04-14T07:58:38.341Z,5.20
2023-04-14T07:59:38.329Z,6.20
2023-04-14T08:00:38.309Z,7.50
2023-04-14T08:01:38.340Z,6.70
2023-04-14T08:02:38.429Z,5.30
2023-04-14T08:03:38.555Z,4.40
2023-04-14T08:04:38.259Z,7.60
2023-04-14T08:05:38.354Z,8.40
2023-04-14T08:06:38.235Z,7.80
2023-04-14T08:07:38.238Z,5.90
2023-04-14T08:08:38.239Z,4.50
2023-04-14T08:09:38.210Z,6.10
2023-04-14T08:10:38.197Z,5.80
2023-04-14T08:11:38.188Z,5.10
2023-04-14T08:12:38.175Z,5.60
2023-04-14T08:13:38.167Z,5.70
2023-04-14T08:14:38.165Z,6.10
2023-04-14T08:15:38.152Z,5.00
2023-04-14T08:16:38.208Z,7.80
2023-04-14T08:17:38.179Z,6.60
2023-04-14T08:18:38.119Z,8.00
2023-04-14T08:19:38.120Z,6.90
2023-04-14T08:20:38.098Z,6.50
2023-04-14T08:21:38.079Z,6.10
2023-04-14T08:22:38.061Z,5.10
2023-04-14T08:23:38.067Z,6.00
2023-04-14T08:24:38.077Z,8.30
2023-04-14T08:25:38.036Z,5.40
2023-04-14T08:26:38.023Z,5.50
2023-04-14T08:27:38.002Z,5.80
2023-04-14T08:28:38.012Z,6.50
2023-04-14T08:29:37.995Z,5.30
2023-04-14T08:30:37.969Z,6.00
2023-04-14T08:31:38.031Z,7.20
2023-04-14T08:32:37.971Z,6.70
2023-04-14T08:33:37.933Z,6.40
2023-04-14T08:34:37.956Z,6.20
2023-04-14T08:35:42.293Z,4.80
2023-04-14T08:36:37.898Z,7.00
2023-04-14T08:37:37.895Z,5.40
2023-04-14T08:38:37.883Z,6.30
2023-04-14T08:39:37.893Z,5.10
2023-04-14T08:40:37.868Z,7.50
2023-04-14T08:41:37.861Z,5.50
2023-04-14T08:42:37.844Z,6.70
2023-04-14T08:43:37.824Z,6.00
2023-04-14T08:44:37.819Z,5.10
2023-04-14T08:45:37.884Z,7.70
2023-04-14T08:46:45.299Z,7.00
2023-04-14T08:47:37.829Z,7.00
2023-04-14T08:48:37.777Z,5.40
2023-04-14T08:49:37.755Z,7.10
2023-04-14T08:50:37.770Z,7.30
2023-04-14T08:51:37.745Z,4.60
2023-04-14T08:52:37.730Z,6.20
2023-04-14T08:53:37.713Z,6.60
2023-04-14T08:54:37.710Z,6.00
2023-04-14T08:55:37.750Z,8.10
2023-04-14T08:56:37.677Z,4.40
2023-04-14T08:57:37.679Z,4.30
2023-04-14T08:58:37.670Z,5.80
2023-04-14T08:59:37.662Z,6.10
2023-04-14T09:00:37.657Z,5.20
2023-04-14T09:01:37.679Z,6.20
2023-04-14T09:02:37.713Z,6.00
2023-04-14T09:03:37.805Z,7.30
2023-04-14T09:04:37.829Z,6.20
2023-04-14T09:05:37.576Z,6.20
2023-04-14T09:06:37.606Z,6.70
2023-04-14T09:07:37.590Z,6.70
2023-04-14T09:08:37.549Z,6.70
2023-04-14T09:09:37.549Z,8.30
2023-04-14T09:10:37.539Z,7.00
2023-04-14T09:11:37.536Z,6.00
2023-04-14T09:12:38.606Z,7.90
2023-04-14T09:13:37.501Z,4.70
2023-04-14T09:14:37.497Z,5.40
2023-04-14T09:15:37.472Z,6.50
2023-04-14T09:16:37.610Z,5.00
2023-04-14T09:17:37.505Z,6.90
2023-04-14T09:18:37.431Z,5.70
2023-04-14T09:19:37.423Z,4.80
2023-04-14T09:20:40.722Z,5.60
2023-04-14T09:21:52.160Z,5.90
2023-04-14T09:22:37.453Z,7.50
2023-04-14T09:23:37.384Z,6.20
2023-04-14T09:24:37.476Z,7.20
2023-04-14T09:25:37.375Z,7.40
2023-04-14T09:26:37.353Z,8.30
2023-04-14T09:27:37.373Z,6.40
2023-04-14T09:28:37.373Z,5.60
2023-04-14T09:29:37.348Z,7.20
2023-04-14T09:30:37.340Z,8.60
2023-04-14T09:31:37.331Z,4.00
2023-04-14T09:32:37.393Z,6.60
2023-04-14T09:33:37.298Z,6.90
2023-04-14T09:34:37.271Z,7.00
2023-04-14T09:35:37.248Z,5.60
2023-04-14T09:36:37.236Z,8.00
2023-04-14T09:37:37.240Z,6.10
2023-04-14T09:38:37.238Z,6.80
2023-04-14T09:39:37.223Z,5.30
2023-04-14T09:40:37.186Z,6.40
2023-04-14T09:41:37.178Z,6.90
2023-04-14T09:42:37.170Z,8.80
2023-04-14T09:43:37.186Z,6.80
2023-04-14T09:44:37.159Z,6.50
2023-04-14T09:45:37.135Z,5.30
2023-04-14T09:46:37.308Z,5.40
2023-04-14T09:47:37.155Z,4.90
2023-04-14T09:48:37.126Z,5.00
2023-04-14T09:49:37.089Z,6.50
2023-04-14T09:50:37.076Z,6.30
2023-04-14T09:51:37.076Z,7.10
2023-04-14T09:52:37.059Z,7.10
2023-04-14T09:53:37.054Z,5.10
2023-04-14T09:54:37.049Z,7.30
2023-04-14T09:55:37.023Z,4.40
2023-04-14T09:56:37.025Z,7.40
2023-04-14T09:57:36.999Z,5.40
2023-04-14T09:58:36.993Z,6.40
2023-04-14T09:59:36.985Z,9.50
2023-04-14T10:00:36.964Z,6.30
2023-04-14T10:01:36.994Z,6.40
2023-04-14T10:02:37.008Z,6.80
2023-04-14T10:03:37.056Z,6.40
2023-04-14T10:04:36.972Z,7.30
2023-04-14T10:05:36.912Z,6.20
2023-04-14T10:06:36.898Z,7.30
2023-04-14T10:07:36.885Z,6.70
2023-04-14T10:08:36.877Z,4.60
2023-04-14T10:09:36.883Z,6.40
2023-04-14T10:10:36.875Z,6.80
2023-04-14T10:11:36.864Z,5.00
2023-04-14T10:12:36.829Z,5.90
2023-04-14T10:13:36.842Z,5.50
2023-04-14T10:14:36.831Z,5.50
2023-04-14T10:15:36.846Z,4.80
2023-04-14T10:16:36.964Z,5.40
2023-04-14T10:17:36.832Z,8.50
2023-04-14T10:18:36.772Z,5.30
2023-04-14T10:19:36.754Z,6.70
2023-04-14T10:20:36.738Z,7.60
2023-04-14T10:21:36.734Z,7.00
2023-04-14T10:22:37.521Z,7.80
2023-04-14T10:23:36.732Z,6.40
2023-04-14T10:24:36.732Z,6.90
2023-04-14T10:25:36.696Z,6.10
2023-04-14T10:26:36.696Z,6.00
2023-04-14T10:27:36.688Z,5.50
2023-04-14T10:28:36.677Z,7.40
2023-04-14T10:29:36.645Z,6.10
2023-04-14T10:30:36.630Z,6.00
2023-04-14T10:31:36.642Z,7.10
2023-04-14T10:32:36.664Z,5.40
2023-04-14T10:33:36.614Z,7.10
2023-04-14T10:34:36.584Z,6.30
2023-04-14T10:35:36.579Z,7.50
2023-04-14T10:36:36.587Z,5.90
2023-04-14T10:37:36.560Z,7.20
2023-04-14T10:38:36.554Z,5.90
2023-04-14T10:39:36.543Z,8.50
2023-04-14T10:40:36.515Z,6.90
2023-04-14T10:41:36.509Z,5.80
2023-04-14T10:42:36.514Z,7.10
2023-04-14T10:43:36.498Z,7.50
2023-04-14T10:44:36.479Z,5.60
2023-04-14T10:45:36.467Z,7.60
2023-04-14T10:46:36.556Z,6.90
2023-04-14T10:47:44.000Z,6.50
2023-04-14T10:48:36.448Z,5.70
2023-04-14T10:49:36.435Z,6.40
2023-04-14T10:50:36.401Z,7.80
2023-04-14T10:51:36.397Z,7.10
2023-04-14T10:52:36.382Z,6.80
2023-04-14T10:53:37.100Z,6.60
2023-04-14T10:54:36.357Z,5.40
2023-04-14T10:55:40.135Z,5.20
2023-04-14T10:56:36.344Z,6.30
2023-04-14T10:57:38.597Z,4.90
2023-04-14T10:58:36.374Z,6.30
2023-04-14T10:59:36.309Z,5.40
2023-04-14T11:00:36.340Z,6.90
2023-04-14T11:01:36.370Z,5.70
2023-04-14T11:02:36.338Z,8.90
2023-04-14T11:03:36.408Z,5.50
2023-04-14T11:04:36.373Z,5.80
2023-04-14T11:05:36.258Z,3.10
2023-04-14T11:06:36.223Z,5.40
2023-04-14T11:07:36.230Z,4.90
2023-04-14T11:08:36.214Z,6.50
2023-04-14T11:09:36.195Z,6.40
2023-04-14T11:10:36.209Z,5.50
2023-04-14T11:11:36.172Z,6.40
2023-04-14T11:12:36.159Z,5.40
2023-04-14T11:13:36.154Z,6.50
2023-04-14T11:14:36.167Z,5.90
2023-04-14T11:15:36.136Z,5.80
2023-04-14T11:16:38.610Z,4.80
2023-04-14T11:17:36.227Z,7.30
2023-04-14T11:18:36.106Z,3.80
2023-04-14T11:19:36.086Z,4.70
2023-04-14T11:20:36.080Z,5.10
2023-04-14T11:21:36.072Z,7.20
2023-04-14T11:22:36.045Z,5.00
2023-04-14T11:23:36.042Z,4.50
2023-04-14T11:24:36.023Z,4.90
2023-04-14T11:25:36.014Z,5.40
2023-04-14T11:26:36.015Z,7.20
2023-04-14T11:27:36.014Z,4.70
2023-04-14T11:28:35.984Z,5.80
2023-04-14T11:29:35.982Z,5.70
2023-04-14T11:30:36.020Z,6.00
2023-04-14T11:31:35.973Z,4.40
2023-04-14T11:32:36.000Z,5.60
2023-04-14T11:33:35.951Z,6.70
2023-04-14T11:34:35.925Z,5.60
2023-04-14T11:35:35.907Z,5.60
2023-04-14T11:36:35.901Z,4.80
2023-04-14T11:37:35.888Z,4.00
2023-04-14T11:38:35.896Z,6.50
2023-04-14T11:39:35.874Z,4.70
2023-04-14T11:40:35.856Z,3.50
2023-04-14T11:41:35.842Z,3.70
2023-04-14T11:42:35.825Z,4.00
2023-04-14T11:43:35.831Z,6.70
2023-04-14T11:44:35.809Z,3.70
2023-04-14T11:45:35.793Z,6.00
2023-04-14T11:46:35.890Z,5.40
2023-04-14T11:47:35.813Z,3.80
2023-04-14T11:48:35.760Z,3.70
2023-04-14T11:49:35.748Z,4.00
2023-04-14T11:50:35.751Z,3.10
2023-04-14T11:51:35.724Z,2.40
2023-04-14T11:52:35.732Z,4.80
2023-04-14T11:53:35.703Z,4.10
2023-04-14T11:54:35.741Z,3.60
2023-04-14T11:55:35.698Z,5.40
2023-04-14T11:56:35.682Z,5.10
2023-04-14T11:57:35.663Z,5.70
2023-04-14T11:58:35.671Z,4.50
2023-04-14T11:59:35.638Z,3.60
2023-04-14T12:00:35.645Z,6.10
2023-04-14T12:01:35.618Z,5.50
2023-04-14T12:02:35.720Z,3.80
2023-04-14T12:03:35.901Z,3.70
2023-04-14T12:04:35.856Z,5.30
2023-04-14T12:05:35.706Z,4.60
2023-04-14T12:06:35.570Z,4.00
2023-04-14T12:07:35.556Z,3.60
2023-04-14T12:08:35.552Z,5.00
2023-04-14T12:09:35.541Z,4.20
2023-04-14T12:10:35.518Z,4.70
2023-04-14T12:11:35.515Z,4.90
2023-04-14T12:12:35.510Z,3.20
2023-04-14T12:13:35.482Z,3.20
2023-04-14T12:14:35.488Z,4.30
2023-04-14T12:15:35.579Z,4.40
2023-04-14T12:16:35.552Z,2.80
2023-04-14T12:17:35.469Z,4.90
2023-04-14T12:18:35.460Z,4.30
2023-04-14T12:19:35.428Z,3.70
2023-04-14T12:20:35.416Z,3.40
2023-04-14T12:21:35.393Z,2.80
2023-04-14T12:22:36.132Z,3.90
2023-04-14T12:23:35.374Z,3.40
2023-04-14T12:24:35.381Z,4.80
2023-04-14T12:25:35.348Z,3.20
2023-04-14T12:26:35.340Z,3.90
2023-04-14T12:27:35.324Z,3.00
2023-04-14T12:28:35.319Z,3.70
2023-04-14T12:29:35.315Z,3.30
2023-04-14T12:30:35.301Z,2.90
2023-04-14T12:31:35.348Z,3.60
2023-04-14T12:32:35.360Z,2.90
2023-04-14T12:33:35.260Z,2.50
2023-04-14T12:34:35.332Z,5.70
2023-04-14T12:35:35.238Z,3.90
2023-04-14T12:37:35.224Z,4.20
2023-04-14T12:38:35.209Z,5.20
2023-04-14T12:39:35.204Z,4.80
2023-04-14T12:40:35.204Z,3.40
2023-04-14T12:41:35.169Z,4.40
2023-04-14T12:42:35.163Z,4.40
2023-04-14T12:43:35.151Z,3.60
2023-04-14T12:44:35.149Z,5.30
2023-04-14T12:45:35.124Z,4.70
2023-04-14T12:46:35.148Z,6.70
2023-04-14T12:47:35.154Z,5.40
2023-04-14T12:48:42.629Z,5.20
2023-04-14T12:49:35.089Z,4.90
2023-04-14T12:50:35.093Z,4.70
2023-04-14T12:51:35.074Z,3.70
2023-04-14T12:52:35.050Z,4.50
2023-04-14T12:53:35.038Z,4.00
2023-04-14T12:54:35.034Z,4.50
2023-04-14T12:55:35.023Z,4.70
2023-04-14T12:56:35.014Z,3.70
2023-04-14T12:57:35.004Z,3.80
2023-04-14T12:58:34.982Z,4.30
2023-04-14T12:59:34.965Z,5.70
2023-04-14T13:00:35.001Z,4.60
2023-04-14T13:01:35.085Z,3.80
2023-04-14T13:02:35.064Z,4.60
2023-04-14T13:03:35.139Z,4.00
2023-04-14T13:04:34.962Z,4.20
2023-04-14T13:05:34.899Z,4.80
2023-04-14T13:06:34.944Z,4.00
2023-04-14T13:07:34.900Z,3.70
2023-04-14T13:08:34.874Z,3.70
2023-04-14T13:09:34.863Z,5.60
2023-04-14T13:10:34.849Z,4.60
2023-04-14T13:11:34.833Z,6.40
2023-04-14T13:12:34.839Z,6.50
2023-04-14T13:13:34.815Z,5.40
2023-04-14T13:14:34.809Z,5.20
2023-04-14T13:16:13.552Z,4.60
2023-04-14T13:16:34.900Z,4.30